LFRZ/SNR METAR and TAF weather

Enter ICAO airport designator
Station Type Date Time Source
LFRZ METAR 2020/03/28 09:00 UTC NOAA

LFRZ 280900Z AUTO 04009KT 4900 BR NSC 09/06 Q1021


Station Type Date Time Source
LFRZ Decoded METAR 2020/03/28 09:00 UTC NOAA

St-Nazaire, France (LFRZ) 47-19N 002-10W 4M
Mar 28, 2020 - 05:00 AM EDT / 2020.03.28 0900 UTC
Wind: from the NE (040 degrees) at 10 MPH (9 KT):0
Visibility: 3 mile(s):0
Weather: mist
Temperature: 48 F (9 C)
Dew Point: 42 F (6 C)
Relative Humidity: 81%
Pressure (altimeter): 30.15 in. Hg (1021 hPa)
ob: LFRZ 280900Z AUTO 04009KT 4900 BR NSC 09/06 Q1021
cycle: 9

Station Type Date Time Source
LFRZ TAF 2020/03/24 23:27 UTC NOAA

TAF
AMD LFRZ 242322Z 2423/2506 CNL

Example: see airport list